Time;durP1;ratioP1;P1;durP2;ratioP2;P2;SDS_P1;SDS_P2;PMS_P1;PMS_P2;Temp;Humidity;BMP_temperature;BMP_pressure;BME280_temperature;BME280_humidity;BME280_pressure;Samples;Min_cycle;Max_cycle;Signal;HPM_P1;HPM_P2
2023/04/06 00:00:25;;;;;;;17.48;10.82;;;;;;;1.25;73.42;102073.31;7389940;19;20083;-54
2023/04/06 00:02:52;;;;;;;20.60;11.95;;;;;;;1.24;73.98;102076.81;7389108;19;19998;-54
2023/04/06 00:05:19;;;;;;;21.13;13.27;;;;;;;1.30;74.03;102072.31;7389010;19;20006;-54
2023/04/06 00:07:45;;;;;;;21.30;11.98;;;;;;;1.31;73.90;102068.78;7391490;19;20494;-53
2023/04/06 00:10:10;;;;;;;25.02;14.60;;;;;;;1.22;74.17;102065.53;7392299;19;19998;-54
2023/04/06 00:12:36;;;;;;;25.38;16.55;;;;;;;1.30;73.82;102061.84;7392206;19;20503;-53
2023/04/06 00:15:08;;;;;;;25.10;15.13;;;;;;;1.70;72.85;102060.91;7390588;19;20809;-53
2023/04/06 00:17:34;;;;;;;26.08;16.67;;;;;;;1.86;71.64;102056.19;7391989;19;20025;-54
2023/04/06 00:20:00;;;;;;;23.65;15.43;;;;;;;1.62;72.56;102055.84;7390128;19;20002;-55
2023/04/06 00:22:25;;;;;;;24.80;16.23;;;;;;;1.73;71.97;102052.97;7388672;19;20003;-54
2023/04/06 00:24:51;;;;;;;27.17;17.92;;;;;;;1.39;73.55;102052.91;7391124;19;20010;-54
2023/04/06 00:27:17;;;;;;;29.67;19.15;;;;;;;1.13;74.30;102057.00;7392097;19;20016;-54
2023/04/06 00:29:43;;;;;;;29.13;19.40;;;;;;;1.12;73.83;102052.63;7389787;19;20359;-54
2023/04/06 00:32:09;;;;;;;26.48;17.45;;;;;;;1.18;73.97;102057.75;7391229;19;19994;-55
2023/04/06 00:34:35;;;;;;;27.95;16.33;;;;;;;1.47;72.92;102050.97;7391390;19;20026;-55
2023/04/06 00:37:00;;;;;;;22.13;14.80;;;;;;;1.27;73.01;102053.19;7389172;19;19987;-55
2023/04/06 00:39:26;;;;;;;28.27;14.73;;;;;;;0.96;74.46;102055.63;7387293;19;19999;-54
2023/04/06 00:41:52;;;;;;;21.65;14.30;;;;;;;0.95;74.62;102051.28;7390033;19;20526;-55
2023/04/06 00:44:19;;;;;;;22.35;13.20;;;;;;;1.16;73.56;102043.81;7390898;19;20024;-54
2023/04/06 00:46:45;;;;;;;17.42;12.20;;;;;;;1.05;74.26;102045.84;7386744;19;20496;-55
2023/04/06 00:49:11;;;;;;;17.73;11.23;;;;;;;1.45;73.02;102038.84;7389915;19;19995;-55
2023/04/06 00:51:36;;;;;;;19.20;12.32;;;;;;;1.47;72.62;102035.25;7388250;19;20324;-54
2023/04/06 00:54:02;;;;;;;18.80;12.70;;;;;;;1.46;72.38;102028.31;7390457;19;20006;-55
2023/04/06 00:56:29;;;;;;;21.80;12.75;;;;;;;1.56;71.89;102029.81;7390544;19;19995;-55
2023/04/06 00:58:55;;;;;;;21.45;13.20;;;;;;;1.13;73.48;102035.19;7388975;19;20467;-54
2023/04/06 01:01:21;;;;;;;19.95;12.50;;;;;;;0.92;74.29;102034.75;7391066;19;20325;-55
2023/04/06 01:03:49;;;;;;;18.30;12.60;;;;;;;1.31;72.82;102034.75;7389619;19;20087;-55
2023/04/06 01:06:15;;;;;;;18.98;12.50;;;;;;;1.01;73.06;102032.81;7386738;19;20004;-56
2023/04/06 01:08:41;;;;;;;18.17;11.90;;;;;;;1.21;72.55;102029.78;7388450;19;20002;-54
2023/04/06 01:11:07;;;;;;;21.15;13.30;;;;;;;1.34;71.43;102028.59;7391082;19;20001;-53
2023/04/06 01:13:33;;;;;;;20.20;12.48;;;;;;;1.41;70.80;102020.56;7391652;19;20020;-53
2023/04/06 01:15:58;;;;;;;18.40;12.13;;;;;;;1.27;71.41;102022.63;7397781;19;20005;-54
2023/04/06 01:18:28;;;;;;;20.30;12.88;;;;;;;1.24;71.29;102017.47;7397217;19;20013;-54
2023/04/06 01:20:53;;;;;;;20.10;12.93;;;;;;;0.82;72.77;102021.88;7395433;19;20486;-54
2023/04/06 01:23:19;;;;;;;20.15;13.40;;;;;;;0.41;74.38;102015.78;7397616;19;20010;-55
2023/04/06 01:25:45;;;;;;;20.17;12.93;;;;;;;0.25;75.29;102014.31;7395491;19;19995;-55
2023/04/06 01:28:10;;;;;;;20.75;13.20;;;;;;;0.35;75.06;102013.25;7394626;19;20066;-54
2023/04/06 01:30:36;;;;;;;18.98;12.32;;;;;;;0.27;75.16;102012.56;7394423;19;20038;-55
2023/04/06 01:33:02;;;;;;;18.67;12.15;;;;;;;0.50;74.45;102012.09;7395882;19;20003;-55
2023/04/06 01:35:27;;;;;;;21.30;12.55;;;;;;;0.84;72.93;102009.66;7396109;19;19999;-54
2023/04/06 01:37:56;;;;;;;17.92;11.98;;;;;;;0.89;72.48;102010.41;7397132;19;20005;-55
2023/04/06 01:40:21;;;;;;;19.08;11.32;;;;;;;1.05;71.82;102009.19;7395149;19;20007;-55
2023/04/06 01:42:47;;;;;;;17.65;10.88;;;;;;;1.22;71.06;102006.19;7397059;19;20016;-53
2023/04/06 01:45:12;;;;;;;17.38;10.90;;;;;;;1.23;70.79;102010.53;7392804;19;20070;-53
2023/04/06 01:47:38;;;;;;;17.02;10.82;;;;;;;1.20;70.39;101999.25;7396197;19;20070;-54
2023/04/06 01:50:06;;;;;;;16.55;10.40;;;;;;;1.20;69.87;102000.13;7396863;19;20022;-53
2023/04/06 01:52:33;;;;;;;19.98;12.63;;;;;;;0.91;70.69;101999.03;7393692;19;20002;-54
2023/04/06 01:54:58;;;;;;;17.88;11.55;;;;;;;0.80;71.41;101995.78;7395498;19;20086;-52
2023/04/06 01:57:25;;;;;;;17.65;10.65;;;;;;;0.86;71.78;101994.78;7396067;19;20002;-54
2023/04/06 01:59:51;;;;;;;16.45;10.98;;;;;;;0.49;73.46;101995.56;7396612;19;19998;-55
2023/04/06 02:02:17;;;;;;;19.23;12.10;;;;;;;0.54;73.58;101998.06;7395787;19;20067;-53
2023/04/06 02:04:42;;;;;;;18.15;10.90;;;;;;;0.46;74.38;101994.75;7394423;19;20341;-53
2023/04/06 02:07:11;;;;;;;18.67;11.15;;;;;;;0.73;73.04;101990.72;7396032;19;19995;-54
2023/04/06 02:09:37;;;;;;;17.02;10.77;;;;;;;1.03;71.58;101982.19;7396090;19;20003;-54
2023/04/06 02:12:03;;;;;;;20.48;12.15;;;;;;;0.54;73.01;101982.38;7393227;19;20106;-55
2023/04/06 02:14:29;;;;;;;18.88;11.25;;;;;;;0.35;74.10;101982.75;7396056;19;20006;-55
2023/04/06 02:16:55;;;;;;;15.57;10.65;;;;;;;0.35;74.07;101977.53;7394218;19;20372;-54
2023/04/06 02:19:20;;;;;;;16.67;10.75;;;;;;;0.32;74.81;101976.72;7393938;19;20005;-50
2023/04/06 02:21:46;;;;;;;16.65;11.10;;;;;;;0.68;73.30;101980.34;7394699;19;20009;-52
2023/04/06 02:24:11;;;;;;;14.45;9.95;;;;;;;0.88;72.91;101975.53;7394039;19;20230;-50
2023/04/06 02:26:40;;;;;;;16.13;11.02;;;;;;;0.60;73.46;101979.66;7390708;19;19999;-50
2023/04/06 02:29:06;;;;;;;17.33;10.05;;;;;;;0.77;72.84;101974.91;7393258;19;20010;-51
2023/04/06 02:31:32;;;;;;;16.83;10.43;;;;;;;0.88;71.96;101974.69;7395395;19;20003;-52
2023/04/06 02:33:58;;;;;;;18.17;10.85;;;;;;;0.90;71.56;101971.16;7393382;19;20021;-51
2023/04/06 02:36:24;;;;;;;15.98;9.80;;;;;;;0.91;71.43;101966.78;7392112;19;20553;-52
2023/04/06 02:38:50;;;;;;;16.55;10.60;;;;;;;0.94;70.84;101969.34;7393183;19;19995;-54
2023/04/06 02:41:15;;;;;;;14.15;9.57;;;;;;;1.02;70.63;101967.41;7394813;19;20563;-54
2023/04/06 02:43:41;;;;;;;15.95;10.65;;;;;;;1.00;70.41;101965.69;7393303;19;20339;-54
2023/04/06 02:46:06;;;;;;;18.20;11.60;;;;;;;0.88;70.85;101965.09;7393013;19;19994;-55
2023/04/06 02:48:35;;;;;;;20.02;11.93;;;;;;;0.73;71.18;101962.81;7393565;19;20001;-54
2023/04/06 02:51:03;;;;;;;15.52;10.73;;;;;;;0.54;71.88;101969.31;7392976;19;20006;-54
2023/04/06 02:53:29;;;;;;;17.20;10.23;;;;;;;0.75;71.28;101962.75;7392201;19;20003;-55
2023/04/06 02:55:55;;;;;;;16.52;10.60;;;;;;;0.66;71.86;101956.84;7393450;19;20482;-54
2023/04/06 02:58:21;;;;;;;15.73;10.57;;;;;;;0.40;72.59;101953.91;7392811;19;20003;-54
2023/04/06 03:00:47;;;;;;;16.52;10.82;;;;;;;0.03;73.54;101959.00;7394748;19;20331;-54
2023/04/06 03:03:12;;;;;;;15.90;11.02;;;;;;;-0.14;74.07;101951.47;7392030;19;20356;-54
2023/04/06 03:05:38;;;;;;;15.90;10.20;;;;;;;-0.37;75.26;101955.34;7393299;19;20327;-55
2023/04/06 03:08:04;;;;;;;15.95;10.10;;;;;;;-0.34;75.17;101952.69;7391524;19;20022;-54
2023/04/06 03:10:29;;;;;;;17.00;10.43;;;;;;;-0.54;75.58;101954.78;7392651;19;20310;-54
2023/04/06 03:12:55;;;;;;;16.90;10.93;;;;;;;-0.73;76.13;101948.16;7392823;19;19994;-55
2023/04/06 03:15:21;;;;;;;16.63;9.95;;;;;;;-0.35;75.42;101947.50;7393685;19;20061;-53
2023/04/06 03:17:46;;;;;;;15.73;10.13;;;;;;;-0.23;73.56;101952.50;7392997;19;20020;-51
2023/04/06 03:20:12;;;;;;;17.25;10.18;;;;;;;-0.33;74.19;101943.09;7393583;19;19998;-55
2023/04/06 03:22:38;;;;;;;15.52;10.27;;;;;;;-0.35;74.14;101950.97;7393631;19;19995;-53
2023/04/06 03:25:04;;;;;;;16.02;9.50;;;;;;;-0.08;73.09;101952.22;7392530;19;20074;-54
2023/04/06 03:27:30;;;;;;;16.33;9.68;;;;;;;-0.31;74.06;101947.41;7392805;19;20003;-55
2023/04/06 03:29:55;;;;;;;15.25;9.43;;;;;;;-0.34;74.17;101954.44;7391746;19;20115;-57
2023/04/06 03:32:21;;;;;;;14.88;9.15;;;;;;;-0.09;73.49;101952.28;7391020;19;20031;-56
2023/04/06 03:34:52;;;;;;;13.70;8.77;;;;;;;0.21;72.22;101945.56;7392106;19;20077;-56
2023/04/06 03:37:18;;;;;;;14.25;8.55;;;;;;;-0.10;72.37;101945.28;7391557;19;20010;-53
2023/04/06 03:39:43;;;;;;;13.68;8.60;;;;;;;-0.32;73.58;101945.69;7393192;19;20481;-54
2023/04/06 03:42:09;;;;;;;14.05;7.97;;;;;;;-0.08;72.75;101949.63;7392546;19;20341;-54
2023/04/06 03:44:35;;;;;;;13.93;7.85;;;;;;;0.19;71.83;101948.22;7392516;19;20032;-53
2023/04/06 03:47:02;;;;;;;12.80;8.38;;;;;;;0.36;70.80;101960.09;7392751;19;20450;-53
2023/04/06 03:49:27;;;;;;;17.55;8.82;;;;;;;0.38;70.91;101953.94;7391362;19;20007;-53
2023/04/06 03:51:53;;;;;;;14.38;8.85;;;;;;;0.42;70.92;101946.91;7392693;19;20022;-51
2023/04/06 03:54:19;;;;;;;14.38;8.30;;;;;;;0.50;70.39;101955.44;7392588;19;20007;-54
2023/04/06 03:56:45;;;;;;;15.18;8.20;;;;;;;0.50;70.49;101959.81;7391574;19;20402;-54
2023/04/06 03:59:11;;;;;;;15.20;8.07;;;;;;;0.47;70.35;101954.66;7388818;19;20013;-54
2023/04/06 04:01:36;;;;;;;14.15;9.32;;;;;;;0.47;70.14;101954.66;7392192;19;19990;-54
2023/04/06 04:04:02;;;;;;;13.85;9.30;;;;;;;0.12;71.51;101948.38;7392816;19;20494;-54
2023/04/06 04:06:31;;;;;;;13.95;9.18;;;;;;;0.34;71.21;101952.28;7389992;19;20013;-53
2023/04/06 04:08:56;;;;;;;14.60;9.52;;;;;;;0.48;70.39;101954.63;7391036;19;20018;-53
2023/04/06 04:11:22;;;;;;;15.55;9.63;;;;;;;0.35;71.20;101953.16;7390457;19;20351;-53
2023/04/06 04:13:47;;;;;;;13.90;9.52;;;;;;;0.19;71.66;101956.06;7391305;19;20003;-54
2023/04/06 04:16:13;;;;;;;15.13;9.75;;;;;;;0.22;71.72;101956.91;7391493;19;20362;-54
2023/04/06 04:18:38;;;;;;;14.73;9.38;;;;;;;0.20;71.69;101963.00;7389664;19;20460;-53
2023/04/06 04:21:04;;;;;;;15.80;9.88;;;;;;;0.31;71.35;101959.31;7391739;19;20011;-53
2023/04/06 04:23:30;;;;;;;14.32;9.10;;;;;;;0.38;70.95;101961.78;7391173;19;19990;-54
2023/04/06 04:25:55;;;;;;;15.40;9.63;;;;;;;0.40;70.92;101960.03;7389983;19;20007;-53
2023/04/06 04:28:21;;;;;;;14.50;8.88;;;;;;;0.33;71.13;101958.41;7390500;19;20006;-54
2023/04/06 04:30:46;;;;;;;15.80;9.40;;;;;;;0.36;70.58;101955.72;7390205;19;20017;-51
2023/04/06 04:33:12;;;;;;;14.50;9.40;;;;;;;0.37;70.18;101954.84;7390791;19;19995;-58
2023/04/06 04:35:37;;;;;;;15.57;9.52;;;;;;;0.33;70.52;101955.81;7390632;19;20058;-51
2023/04/06 04:38:03;;;;;;;15.93;9.77;;;;;;;0.28;70.15;101956.78;7390835;19;20031;-53
2023/04/06 04:40:30;;;;;;;16.58;9.77;;;;;;;0.08;70.94;101955.41;7391818;19;19999;-54
2023/04/06 04:42:55;;;;;;;16.38;10.30;;;;;;;-0.13;72.19;101964.53;7390823;19;19995;-54
2023/04/06 04:45:21;;;;;;;14.70;9.30;;;;;;;0.05;71.84;101958.06;7390474;19;20495;-53
2023/04/06 04:47:46;;;;;;;16.35;10.70;;;;;;;-0.08;71.70;101965.28;7391562;19;20062;-51
2023/04/06 04:50:12;;;;;;;16.75;9.90;;;;;;;-0.25;72.67;101958.63;7398292;19;19987;-55
2023/04/06 04:52:37;;;;;;;16.25;11.23;;;;;;;-0.11;72.15;101964.47;7396964;19;20099;-55
2023/04/06 04:55:04;;;;;;;16.27;11.15;;;;;;;-0.24;72.83;101958.63;7396851;19;20006;-53
2023/04/06 04:57:32;;;;;;;15.43;10.40;;;;;;;-0.24;73.26;101963.00;7396657;19;20029;-53
2023/04/06 04:59:58;;;;;;;15.27;10.38;;;;;;;0.12;71.63;101956.22;7398281;19;20070;-52
2023/04/06 05:02:23;;;;;;;15.75;11.05;;;;;;;-0.02;71.58;101956.47;7397415;19;20006;-52
2023/04/06 05:04:49;;;;;;;17.85;11.18;;;;;;;-0.33;72.76;101962.22;7397776;19;19995;-51
2023/04/06 05:07:15;;;;;;;16.55;10.90;;;;;;;-0.62;73.82;101954.06;7395973;19;20034;-50
2023/04/06 05:09:41;;;;;;;16.20;10.82;;;;;;;-0.69;74.92;101947.22;7398061;19;20017;-51
2023/04/06 05:12:07;;;;;;;16.15;10.10;;;;;;;-0.16;72.67;101953.25;7395232;19;20002;-53
2023/04/06 05:14:33;;;;;;;14.98;9.35;;;;;;;0.09;71.11;101953.66;7397411;19;20002;-53
2023/04/06 05:17:05;;;;;;;15.77;10.82;;;;;;;-0.35;72.02;101948.38;7396885;19;20632;-53
2023/04/06 05:19:30;;;;;;;15.57;9.98;;;;;;;-0.15;71.62;101953.22;7395040;19;20023;-56
2023/04/06 05:21:56;;;;;;;15.45;10.48;;;;;;;-0.05;71.27;101956.53;7395408;19;20463;-55
2023/04/06 05:24:21;;;;;;;17.38;10.02;;;;;;;-0.07;71.98;101950.47;7397548;19;20011;-55
2023/04/06 05:26:48;;;;;;;16.77;10.85;;;;;;;0.17;70.87;101957.84;7392427;19;20031;-55
2023/04/06 05:29:14;;;;;;;16.33;11.00;;;;;;;0.21;70.90;101953.41;7394342;19;20014;-55
2023/04/06 05:31:40;;;;;;;17.85;11.25;;;;;;;0.10;71.40;101952.75;7396772;19;19991;-55
2023/04/06 05:34:06;;;;;;;17.58;11.48;;;;;;;0.01;71.91;101956.41;7395097;19;20058;-54
2023/04/06 05:36:32;;;;;;;15.82;11.27;;;;;;;-0.17;73.30;101951.53;7396923;19;20461;-54
2023/04/06 05:38:58;;;;;;;17.92;11.63;;;;;;;-0.05;73.35;101954.78;7395737;19;20006;-55
2023/04/06 05:41:24;;;;;;;17.95;11.38;;;;;;;0.15;71.94;101943.94;7396759;19;20020;-56
2023/04/06 05:43:50;;;;;;;16.98;11.98;;;;;;;0.24;71.43;101942.03;7395418;19;20319;-55
2023/04/06 05:46:15;;;;;;;19.83;11.95;;;;;;;0.47;70.85;101937.19;7392352;19;19999;-53
2023/04/06 05:48:41;;;;;;;18.67;12.38;;;;;;;0.57;69.93;101945.72;7395069;19;19991;-55
2023/04/06 05:51:07;;;;;;;18.95;12.80;;;;;;;0.70;69.50;101939.31;7396922;19;20005;-55
2023/04/06 05:53:33;;;;;;;19.70;12.20;;;;;;;0.88;68.89;101938.06;7393764;19;19999;-55
2023/04/06 05:56:02;;;;;;;20.08;12.27;;;;;;;0.84;68.48;101954.72;7395218;19;20514;-52
2023/04/06 05:58:28;;;;;;;18.15;11.48;;;;;;;0.44;70.01;101942.50;7392607;19;19998;-57
2023/04/06 06:01:00;;;;;;;16.90;11.20;;;;;;;0.59;70.22;101946.53;7394889;19;20026;-54
2023/04/06 06:03:26;;;;;;;20.15;12.10;;;;;;;0.77;68.80;101937.44;7396378;19;19994;-57
2023/04/06 06:05:52;;;;;;;19.88;12.95;;;;;;;0.86;68.56;101943.34;7394906;19;20474;-57
2023/04/06 06:08:18;;;;;;;17.75;12.35;;;;;;;1.01;68.40;101942.09;7395226;19;20002;-56
2023/04/06 06:10:43;;;;;;;19.10;12.35;;;;;;;1.10;67.63;101944.53;7395480;19;20395;-54
2023/04/06 06:13:12;;;;;;;19.63;12.82;;;;;;;1.21;67.51;101938.19;7395099;19;20490;-58
2023/04/06 06:15:40;;;;;;;20.17;12.00;;;;;;;1.22;67.02;101940.75;7395739;19;19995;-56
2023/04/06 06:18:06;;;;;;;19.77;12.57;;;;;;;1.15;67.51;101939.19;7394984;19;19998;-58
2023/04/06 06:20:32;;;;;;;22.55;12.73;;;;;;;1.23;67.22;101939.84;7394211;19;20019;-56
2023/04/06 06:22:58;;;;;;;19.55;12.15;;;;;;;1.27;67.18;101941.50;7395161;19;20002;-53
2023/04/06 06:25:24;;;;;;;18.50;12.18;;;;;;;1.38;66.80;101949.09;7393909;19;20022;-56
2023/04/06 06:27:49;;;;;;;17.42;10.82;;;;;;;1.38;66.68;101942.09;7392576;19;20022;-53
2023/04/06 06:30:15;;;;;;;18.05;11.63;;;;;;;1.44;67.42;101940.25;7393353;19;20010;-55
2023/04/06 06:32:41;;;;;;;18.73;11.68;;;;;;;1.52;67.40;101936.53;7392544;19;20016;-54
2023/04/06 06:35:07;;;;;;;20.88;11.82;;;;;;;1.62;67.39;101939.75;7393955;19;20455;-53
2023/04/06 06:37:32;;;;;;;19.40;12.13;;;;;;;1.77;66.55;101933.25;7393220;19;20071;-52
2023/04/06 06:39:58;;;;;;;18.92;12.38;;;;;;;1.87;66.09;101935.59;7395291;19;20339;-52
2023/04/06 06:42:24;;;;;;;17.70;11.27;;;;;;;1.94;66.08;101938.94;7391109;19;20515;-53
2023/04/06 06:44:50;;;;;;;20.90;12.55;;;;;;;2.05;65.78;101939.50;7394273;19;20028;-55
2023/04/06 06:47:16;;;;;;;19.60;12.43;;;;;;;2.13;65.62;101931.41;7393020;19;20002;-56
2023/04/06 06:49:42;;;;;;;18.05;12.77;;;;;;;2.06;65.37;101925.47;7394827;19;20515;-56
2023/04/06 06:52:07;;;;;;;16.50;11.48;;;;;;;2.10;65.59;101929.72;7393455;19;19999;-57
2023/04/06 06:54:33;;;;;;;18.23;12.13;;;;;;;2.17;65.08;101927.81;7392651;19;19998;-57
2023/04/06 06:57:01;;;;;;;16.50;10.52;;;;;;;2.27;64.40;101924.00;7393224;19;20177;-57
2023/04/06 06:59:26;;;;;;;16.50;10.88;;;;;;;2.40;63.49;101916.66;7391908;19;20031;-56
2023/04/06 07:01:52;;;;;;;17.45;12.07;;;;;;;2.49;62.79;101915.53;7391065;19;20506;-57
2023/04/06 07:04:18;;;;;;;17.20;10.35;;;;;;;2.60;62.05;101909.06;7391650;19;20006;-55
2023/04/06 07:06:43;;;;;;;16.52;10.35;;;;;;;2.76;61.19;101905.97;7391663;19;19998;-55
2023/04/06 07:09:09;;;;;;;17.25;9.73;;;;;;;2.83;60.76;101910.97;7392067;19;20007;-53
2023/04/06 07:11:35;;;;;;;16.65;9.38;;;;;;;2.91;60.31;101904.63;7393911;19;20003;-54
2023/04/06 07:14:00;;;;;;;16.42;9.55;;;;;;;2.98;59.55;101907.00;7391328;19;19999;-55
2023/04/06 07:16:26;;;;;;;15.73;9.45;;;;;;;3.08;59.10;101897.94;7392161;19;20010;-55
2023/04/06 07:18:51;;;;;;;17.65;9.23;;;;;;;3.17;58.18;101902.03;7390090;19;20062;-55
2023/04/06 07:21:17;;;;;;;14.73;8.85;;;;;;;3.24;57.60;101903.53;7391459;19;20447;-57
2023/04/06 07:23:43;;;;;;;19.52;8.73;;;;;;;3.31;56.60;101898.97;7392557;19;19999;-57
2023/04/06 07:26:09;;;;;;;17.02;8.52;;;;;;;3.38;56.02;101905.72;7391587;19;19999;-56
2023/04/06 07:28:37;;;;;;;14.57;8.18;;;;;;;3.49;55.63;101906.19;7390478;19;20340;-57
2023/04/06 07:31:03;;;;;;;14.00;7.60;;;;;;;3.58;54.90;101903.28;7390971;19;20032;-54
2023/04/06 07:33:31;;;;;;;13.05;7.55;;;;;;;3.63;54.31;101896.06;7392243;19;19999;-56
2023/04/06 07:35:58;;;;;;;13.13;7.65;;;;;;;3.68;53.42;101901.16;7391987;19;20027;-56
2023/04/06 07:38:23;;;;;;;18.02;11.00;;;;;;;3.66;53.77;101902.16;7391234;19;20329;-55
2023/04/06 07:40:49;;;;;;;13.25;7.65;;;;;;;3.65;52.63;101895.16;7391999;19;20005;-55
2023/04/06 07:43:16;;;;;;;13.18;7.80;;;;;;;3.68;52.89;101892.44;7392084;19;20022;-57
2023/04/06 07:45:41;;;;;;;19.27;12.10;;;;;;;3.80;52.89;101900.75;7390739;19;20006;-56
2023/04/06 07:48:07;;;;;;;16.45;10.10;;;;;;;3.85;52.74;101895.34;7390792;19;20003;-55
2023/04/06 07:50:33;;;;;;;14.30;8.05;;;;;;;3.85;52.40;101896.19;7386628;19;20442;-54
2023/04/06 07:52:59;;;;;;;13.50;7.40;;;;;;;3.86;51.83;101897.03;7390892;19;20014;-53
2023/04/06 07:55:25;;;;;;;14.20;7.65;;;;;;;3.91;51.97;101900.34;7393779;19;19995;-55
2023/04/06 07:57:51;;;;;;;13.40;8.00;;;;;;;3.90;52.03;101892.53;7391380;19;20463;-55
2023/04/06 08:00:16;;;;;;;13.00;8.95;;;;;;;3.93;52.22;101888.06;7391062;19;20501;-55
2023/04/06 08:02:42;;;;;;;14.50;8.20;;;;;;;3.96;52.09;101887.09;7391572;19;20076;-55
2023/04/06 08:05:09;;;;;;;13.23;8.10;;;;;;;4.02;51.77;101892.97;7388479;19;20002;-54
2023/04/06 08:07:35;;;;;;;13.50;8.25;;;;;;;4.12;51.83;101882.13;7389521;19;19999;-53
2023/04/06 08:10:01;;;;;;;13.02;7.40;;;;;;;4.14;51.95;101889.03;7391633;19;20035;-56
2023/04/06 08:12:26;;;;;;;15.43;8.25;;;;;;;4.15;52.01;101874.13;7391738;19;19998;-54
2023/04/06 08:14:52;;;;;;;16.83;7.85;;;;;;;4.25;52.21;101870.22;7389325;19;20373;-56
2023/04/06 08:17:18;;;;;;;13.32;8.10;;;;;;;4.38;52.02;101873.28;7391477;19;19995;-54
2023/04/06 08:19:44;;;;;;;14.90;8.45;;;;;;;4.40;51.83;101872.28;7389769;19;20014;-55
2023/04/06 08:22:10;;;;;;;12.55;7.70;;;;;;;4.48;51.45;101875.47;7387313;19;20499;-53
2023/04/06 08:24:36;;;;;;;12.20;7.65;;;;;;;4.47;51.43;101868.50;7388455;19;19999;-53
2023/04/06 08:27:02;;;;;;;12.93;8.05;;;;;;;4.51;51.65;101867.47;7387282;19;20035;-53
2023/04/06 08:29:28;;;;;;;11.98;7.55;;;;;;;4.58;51.50;101865.44;7389444;19;20014;-54
2023/04/06 08:31:54;;;;;;;15.38;7.85;;;;;;;4.61;51.30;101861.84;7390934;19;20034;-54
2023/04/06 08:34:21;;;;;;;12.57;7.47;;;;;;;4.64;51.38;101862.59;7391659;19;20006;-54
2023/04/06 08:36:47;;;;;;;16.90;8.18;;;;;;;4.76;51.19;101863.88;7387926;19;20035;-55
2023/04/06 08:39:12;;;;;;;12.82;7.50;;;;;;;4.77;51.00;101858.53;7386897;19;20002;-55
2023/04/06 08:41:41;;;;;;;13.60;8.15;;;;;;;4.82;50.87;101861.84;7389356;19;20067;-55
2023/04/06 08:44:07;;;;;;;12.57;7.30;;;;;;;4.84;50.39;101861.78;7391059;19;20013;-55
2023/04/06 08:46:33;;;;;;;13.40;7.70;;;;;;;4.90;50.82;101852.78;7388212;19;20392;-54
2023/04/06 08:49:01;;;;;;;14.65;7.53;;;;;;;4.97;50.58;101852.47;7389322;19;20368;-54
2023/04/06 08:51:28;;;;;;;13.15;7.60;;;;;;;5.03;50.29;101852.22;7388040;19;20026;-55
2023/04/06 08:53:55;;;;;;;11.63;7.18;;;;;;;5.06;50.23;101857.38;7390538;19;20002;-54
2023/04/06 08:56:23;;;;;;;12.57;7.55;;;;;;;5.13;49.88;101855.31;7389320;19;20006;-54
2023/04/06 08:58:49;;;;;;;10.68;7.38;;;;;;;5.11;49.78;101859.81;7389850;19;20002;-55
2023/04/06 09:01:17;;;;;;;13.98;7.75;;;;;;;5.16;49.50;101860.47;7390195;19;19999;-54
2023/04/06 09:03:44;;;;;;;14.43;7.00;;;;;;;5.19;49.97;101864.75;7388188;19;20007;-55
2023/04/06 09:06:11;;;;;;;11.95;7.32;;;;;;;5.29;49.94;101855.56;7386453;19;20024;-54
2023/04/06 09:08:39;;;;;;;13.50;7.80;;;;;;;5.39;49.61;101854.22;7388288;19;20002;-53
2023/04/06 09:11:06;;;;;;;13.07;7.43;;;;;;;5.39;49.65;101856.88;7389376;19;20451;-55
2023/04/06 09:13:45;;;;;;;14.93;8.50;;;;;;;5.52;49.84;101859.84;7387982;19;20013;-54
2023/04/06 09:16:13;;;;;;;13.68;7.70;;;;;;;5.52;49.51;101855.44;7388313;19;19999;-54
2023/04/06 09:18:39;;;;;;;12.63;7.95;;;;;;;5.54;49.67;101850.94;7386663;19;20007;-53
2023/04/06 09:21:07;;;;;;;13.32;7.90;;;;;;;5.60;49.00;101854.25;7389963;19;20003;-55
2023/04/06 09:23:33;;;;;;;12.30;7.50;;;;;;;5.67;49.40;101847.75;7387329;19;20475;-54
2023/04/06 09:26:16;;;;;;;12.40;8.00;;;;;;;5.74;48.67;101852.69;7387380;19;20003;-54
2023/04/06 09:28:49;;;;;;;15.52;8.38;;;;;;;5.78;49.38;101848.13;7390471;19;20003;-52
2023/04/06 09:31:16;;;;;;;15.63;7.72;;;;;;;5.88;49.03;101841.53;7391164;19;20021;-54
2023/04/06 09:33:46;;;;;;;13.07;7.60;;;;;;;5.97;49.04;101843.75;7391587;19;20007;-54
2023/04/06 09:36:18;;;;;;;12.90;7.35;;;;;;;6.07;48.44;101846.84;7396484;19;20474;-53
2023/04/06 09:38:55;;;;;;;13.65;8.23;;;;;;;6.16;49.00;101835.00;7398401;19;20019;-54
2023/04/06 09:41:26;;;;;;;13.48;7.93;;;;;;;6.23;48.67;101832.00;7397503;19;20031;-54
2023/04/06 09:44:01;;;;;;;15.15;8.07;;;;;;;6.25;48.55;101831.94;7397572;19;20014;-51
2023/04/06 09:46:28;;;;;;;14.65;9.10;;;;;;;6.28;47.96;101835.31;7396764;19;20011;-54
2023/04/06 09:48:54;;;;;;;12.20;7.50;;;;;;;6.34;47.72;101828.88;7398215;19;20021;-55
2023/04/06 09:51:21;;;;;;;14.50;8.75;;;;;;;6.43;47.71;101833.75;7397872;19;20002;-54
2023/04/06 09:53:52;;;;;;;14.23;8.23;;;;;;;6.49;47.53;101830.81;7399842;19;20029;-54
2023/04/06 09:56:23;;;;;;;15.27;8.40;;;;;;;6.58;48.07;101833.94;7398264;19;20010;-53
2023/04/06 09:58:52;;;;;;;15.27;8.48;;;;;;;6.60;47.66;101840.03;7397562;19;20447;-55
2023/04/06 10:01:20;;;;;;;14.45;8.45;;;;;;;6.67;47.27;101830.88;7396519;19;20502;-54
2023/04/06 10:03:59;;;;;;;14.75;8.70;;;;;;;6.73;46.53;101835.84;7396518;19;20506;-56
2023/04/06 10:06:28;;;;;;;15.93;8.35;;;;;;;6.70;46.61;101839.50;7394541;19;20015;-54
2023/04/06 10:08:56;;;;;;;12.85;8.45;;;;;;;6.71;47.12;101824.50;7395313;19;20011;-54
2023/04/06 10:11:22;;;;;;;13.63;8.63;;;;;;;6.76;47.11;101827.78;7398509;19;20006;-54
2023/04/06 10:13:49;;;;;;;14.02;9.23;;;;;;;6.87;46.65;101828.09;7397948;19;20493;-54
2023/04/06 10:16:17;;;;;;;14.98;8.98;;;;;;;6.94;46.55;101831.31;7397307;19;20009;-56
2023/04/06 10:18:50;;;;;;;14.82;8.68;;;;;;;6.95;46.50;101825.09;7395478;19;20066;-55
2023/04/06 10:21:21;;;;;;;15.98;8.95;;;;;;;6.99;46.86;101824.84;7398676;19;20023;-55
2023/04/06 10:23:57;;;;;;;16.80;8.93;;;;;;;7.09;46.68;101825.25;7397113;19;20022;-55
2023/04/06 10:26:22;;;;;;;14.98;8.82;;;;;;;7.14;46.47;101825.88;7396656;19;20006;-53
2023/04/06 10:28:49;;;;;;;15.95;8.73;;;;;;;7.21;46.46;101818.50;7397028;19;20859;-52
2023/04/06 10:31:23;;;;;;;15.85;9.60;;;;;;;7.28;46.32;101819.91;7394216;19;20485;-54
2023/04/06 10:34:02;;;;;;;19.65;9.38;;;;;;;7.30;45.23;101818.00;7395275;19;20002;-55
2023/04/06 10:36:33;;;;;;;13.70;8.80;;;;;;;7.32;45.70;101826.75;7397623;19;20007;-53
2023/04/06 10:39:02;;;;;;;14.82;8.75;;;;;;;7.37;46.02;101822.06;7396825;19;20486;-55
2023/04/06 10:41:42;;;;;;;16.15;9.02;;;;;;;7.43;45.15;101823.56;7398337;19;20002;-53
2023/04/06 10:44:16;;;;;;;16.42;9.65;;;;;;;7.45;46.15;101811.09;7395366;19;20010;-53
2023/04/06 10:46:52;;;;;;;15.80;9.80;;;;;;;7.55;45.87;101806.19;7394986;19;20014;-54
2023/04/06 10:49:18;;;;;;;16.40;9.73;;;;;;;7.68;46.17;101810.72;7396142;19;20439;-54
2023/04/06 10:51:44;;;;;;;14.32;9.68;;;;;;;7.81;45.21;101804.81;7394978;19;20006;-54
2023/04/06 10:54:11;;;;;;;17.90;10.30;;;;;;;7.77;45.57;101807.63;7397290;19;20006;-54
2023/04/06 10:56:38;;;;;;;15.85;9.82;;;;;;;7.85;45.21;101806.34;7394676;19;20411;-54
2023/04/06 10:59:05;;;;;;;16.00;10.27;;;;;;;7.87;45.26;101807.09;7394938;19;20344;-55
2023/04/06 11:01:31;;;;;;;18.60;10.57;;;;;;;7.88;45.20;101801.75;7397362;19;19999;-54
2023/04/06 11:04:03;;;;;;;20.13;10.23;;;;;;;7.92;44.50;101797.13;7394589;19;20018;-55
2023/04/06 11:06:31;;;;;;;16.05;9.73;;;;;;;7.98;45.06;101792.34;7394693;19;20034;-54
2023/04/06 11:08:57;;;;;;;15.70;9.57;;;;;;;8.02;45.14;101799.19;7395966;19;20011;-53
2023/04/06 11:11:26;;;;;;;14.80;9.70;;;;;;;7.98;45.27;101805.59;7394946;19;20078;-52
2023/04/06 11:13:53;;;;;;;15.05;9.85;;;;;;;7.97;45.34;101788.00;7394731;19;20007;-55
2023/04/06 11:16:23;;;;;;;15.88;9.90;;;;;;;8.09;45.28;101789.13;7395684;19;20021;-51